Search for airport 
image banner adimage banner adimage banner ad
image banner ad

49CN - Rancho Tehama

Located in Red Bluff, United States

ICAO - 49CN, IATA -

Data provided by Airmate  

General information

Coordinates: N40°0'58" W122°23'24"
Elevation is 550 feet MSL.
Magnetic variation is 17° East
View others Airports in California

Operational data

Special qualification required
Current time UTC:
Current local time:
Weather at : KRBL - Red Bluff Muni ( 19 km )
METAR: KRBL 240954Z AUTO 02003KT 10SM CLR 22/12 A2993 RMK AO2 SLP129 T02170122
TAF: KRBL 240520Z 2406/2506 18008KT P6SM SKC FM240800 17005KT P6SM SKC FM242200 14010KT P6SM SCT150
View NOTAMs / SUP AIP / TFR affecting this airport [VIEW]
Communications frequencies: [VIEW]

Runways:

RWY identifierQFULength (ft)Width (ft)SurfaceLDA (ft)
09375040OTHER
27375040OTHER

Airport contact information

Address: Red Bluff United States

Satellite view of 49CN